sensor_id;sensor_type;location;lat;lon;timestamp;pressure;altitude;pressure_sealevel;temperature;humidity
2339;BME280;1180;51.438;6.978;2022-12-20T00:01:14;100222.88;;;13.82;77.15
2339;BME280;1180;51.438;6.978;2022-12-20T00:03:40;100233.41;;;13.79;77.28
2339;BME280;1180;51.438;6.978;2022-12-20T00:06:06;100220.97;;;13.72;77.19
2339;BME280;1180;51.438;6.978;2022-12-20T00:08:31;100222.78;;;13.83;77.04
2339;BME280;1180;51.438;6.978;2022-12-20T00:11:00;100207.63;;;13.79;76.64
2339;BME280;1180;51.438;6.978;2022-12-20T00:13:26;100204.56;;;13.74;76.76
2339;BME280;1180;51.438;6.978;2022-12-20T00:16:03;100213.50;;;13.81;76.99
2339;BME280;1180;51.438;6.978;2022-12-20T00:18:29;100201.53;;;13.80;76.80
2339;BME280;1180;51.438;6.978;2022-12-20T00:20:58;100204.94;;;13.80;76.84
2339;BME280;1180;51.438;6.978;2022-12-20T00:23:23;100200.38;;;13.84;77.20
2339;BME280;1180;51.438;6.978;2022-12-20T00:25:49;100203.88;;;13.83;76.95
2339;BME280;1180;51.438;6.978;2022-12-20T00:28:14;100199.00;;;14.03;75.81
2339;BME280;1180;51.438;6.978;2022-12-20T00:30:39;100193.16;;;14.00;76.01
2339;BME280;1180;51.438;6.978;2022-12-20T00:33:05;100203.00;;;13.95;76.12
2339;BME280;1180;51.438;6.978;2022-12-20T00:35:30;100189.91;;;13.74;77.34
2339;BME280;1180;51.438;6.978;2022-12-20T00:37:55;100193.47;;;13.84;77.46
2339;BME280;1180;51.438;6.978;2022-12-20T00:40:21;100181.38;;;13.85;77.12
2339;BME280;1180;51.438;6.978;2022-12-20T00:42:46;100183.94;;;13.74;77.50
2339;BME280;1180;51.438;6.978;2022-12-20T00:45:11;100187.31;;;13.74;77.70
2339;BME280;1180;51.438;6.978;2022-12-20T00:47:36;100184.19;;;13.82;77.25
2339;BME280;1180;51.438;6.978;2022-12-20T00:50:03;100175.72;;;13.68;77.40
2339;BME280;1180;51.438;6.978;2022-12-20T00:52:29;100176.91;;;13.76;77.92
2339;BME280;1180;51.438;6.978;2022-12-20T00:54:54;100181.19;;;13.99;76.50
2339;BME280;1180;51.438;6.978;2022-12-20T00:57:19;100171.56;;;14.01;76.18
2339;BME280;1180;51.438;6.978;2022-12-20T00:59:45;100171.75;;;13.76;77.18
2339;BME280;1180;51.438;6.978;2022-12-20T01:02:10;100188.88;;;13.88;77.46
2339;BME280;1180;51.438;6.978;2022-12-20T01:04:35;100183.28;;;13.94;77.17
2339;BME280;1180;51.438;6.978;2022-12-20T01:07:02;100180.91;;;13.91;77.12
2339;BME280;1180;51.438;6.978;2022-12-20T01:09:27;100168.69;;;13.70;77.94
2339;BME280;1180;51.438;6.978;2022-12-20T01:11:53;100175.38;;;13.73;77.96
2339;BME280;1180;51.438;6.978;2022-12-20T01:14:18;100170.19;;;13.73;77.92
2339;BME280;1180;51.438;6.978;2022-12-20T01:16:45;100168.78;;;13.69;78.00
2339;BME280;1180;51.438;6.978;2022-12-20T01:19:12;100164.25;;;13.84;77.31
2339;BME280;1180;51.438;6.978;2022-12-20T01:21:38;100164.38;;;13.94;76.59
2339;BME280;1180;51.438;6.978;2022-12-20T01:24:09;100151.81;;;13.78;77.52
2339;BME280;1180;51.438;6.978;2022-12-20T01:26:34;100163.34;;;13.96;76.75
2339;BME280;1180;51.438;6.978;2022-12-20T01:29:00;100153.84;;;13.97;76.62
2339;BME280;1180;51.438;6.978;2022-12-20T01:31:26;100155.13;;;13.91;76.94
2339;BME280;1180;51.438;6.978;2022-12-20T01:33:52;100175.09;;;14.00;77.00
2339;BME280;1180;51.438;6.978;2022-12-20T01:36:23;100160.06;;;13.94;76.85
2339;BME280;1180;51.438;6.978;2022-12-20T01:39:01;100161.09;;;13.80;77.80
2339;BME280;1180;51.438;6.978;2022-12-20T01:41:28;100159.47;;;13.91;77.52
2339;BME280;1180;51.438;6.978;2022-12-20T01:43:59;100157.50;;;13.94;77.05
2339;BME280;1180;51.438;6.978;2022-12-20T01:46:26;100152.06;;;13.86;77.40
2339;BME280;1180;51.438;6.978;2022-12-20T01:51:28;100150.00;;;14.03;76.85
2339;BME280;1180;51.438;6.978;2022-12-20T01:53:59;100145.53;;;14.05;76.95
2339;BME280;1180;51.438;6.978;2022-12-20T01:56:26;100143.06;;;14.03;76.78
2339;BME280;1180;51.438;6.978;2022-12-20T01:58:53;100153.75;;;14.10;77.08
2339;BME280;1180;51.438;6.978;2022-12-20T02:01:22;100141.19;;;14.05;77.00
2339;BME280;1180;51.438;6.978;2022-12-20T02:03:48;100138.25;;;13.98;77.81
2339;BME280;1180;51.438;6.978;2022-12-20T02:06:19;100143.66;;;13.95;78.63
2339;BME280;1180;51.438;6.978;2022-12-20T02:08:50;100145.53;;;14.05;78.40
2339;BME280;1180;51.438;6.978;2022-12-20T02:22:33;100121.56;;;13.80;80.34
2339;BME280;1180;51.438;6.978;2022-12-20T02:30:33;100123.69;;;13.86;81.15
2339;BME280;1180;51.438;6.978;2022-12-20T02:33:03;100126.25;;;13.86;80.97
2339;BME280;1180;51.438;6.978;2022-12-20T02:35:32;100131.31;;;13.88;80.79
2339;BME280;1180;51.438;6.978;2022-12-20T02:38:00;100127.91;;;13.76;81.16
2339;BME280;1180;51.438;6.978;2022-12-20T02:40:39;100140.09;;;13.74;81.51
2339;BME280;1180;51.438;6.978;2022-12-20T02:43:07;100128.13;;;13.84;80.93
2339;BME280;1180;51.438;6.978;2022-12-20T02:45:54;100122.19;;;13.83;81.64
2339;BME280;1180;51.438;6.978;2022-12-20T02:48:22;100109.50;;;13.80;81.61
2339;BME280;1180;51.438;6.978;2022-12-20T02:50:51;100113.38;;;13.86;82.48
2339;BME280;1180;51.438;6.978;2022-12-20T02:53:18;100120.41;;;13.84;83.19
2339;BME280;1180;51.438;6.978;2022-12-20T02:56:00;100117.34;;;13.79;83.65
2339;BME280;1180;51.438;6.978;2022-12-20T02:58:35;100120.88;;;13.78;84.11
2339;BME280;1180;51.438;6.978;2022-12-20T03:01:08;100133.41;;;13.71;84.27
2339;BME280;1180;51.438;6.978;2022-12-20T03:03:35;100130.94;;;13.69;83.92
2339;BME280;1180;51.438;6.978;2022-12-20T03:06:01;100124.38;;;13.65;84.14
2339;BME280;1180;51.438;6.978;2022-12-20T03:08:26;100116.03;;;13.62;85.29
2339;BME280;1180;51.438;6.978;2022-12-20T03:10:53;100120.00;;;13.43;86.54
2339;BME280;1180;51.438;6.978;2022-12-20T03:13:20;100127.31;;;13.36;87.19
2339;BME280;1180;51.438;6.978;2022-12-20T03:15:46;100122.97;;;13.37;88.12
2339;BME280;1180;51.438;6.978;2022-12-20T03:18:11;100142.88;;;13.35;88.44
2339;BME280;1180;51.438;6.978;2022-12-20T03:20:37;100139.44;;;13.23;89.22
2339;BME280;1180;51.438;6.978;2022-12-20T03:23:02;100136.38;;;12.93;90.89
2339;BME280;1180;51.438;6.978;2022-12-20T03:25:28;100155.59;;;13.00;91.64
2339;BME280;1180;51.438;6.978;2022-12-20T03:27:54;100149.97;;;13.20;90.66
2339;BME280;1180;51.438;6.978;2022-12-20T03:30:19;100139.81;;;13.29;89.69
2339;BME280;1180;51.438;6.978;2022-12-20T03:32:44;100141.06;;;13.24;89.75
2339;BME280;1180;51.438;6.978;2022-12-20T03:35:10;100142.69;;;13.13;90.96
2339;BME280;1180;51.438;6.978;2022-12-20T03:37:35;100131.56;;;13.13;91.31
2339;BME280;1180;51.438;6.978;2022-12-20T03:40:00;100131.66;;;13.11;91.12
2339;BME280;1180;51.438;6.978;2022-12-20T03:42:26;100136.28;;;12.95;92.25
2339;BME280;1180;51.438;6.978;2022-12-20T03:44:51;100126.03;;;13.06;92.35
2339;BME280;1180;51.438;6.978;2022-12-20T03:47:16;100118.72;;;13.00;92.72
2339;BME280;1180;51.438;6.978;2022-12-20T03:49:42;100119.53;;;13.00;93.34
2339;BME280;1180;51.438;6.978;2022-12-20T03:52:10;100116.03;;;13.02;92.94
2339;BME280;1180;51.438;6.978;2022-12-20T03:54:36;100111.72;;;13.02;92.95
2339;BME280;1180;51.438;6.978;2022-12-20T03:57:02;100106.50;;;12.91;92.58
2339;BME280;1180;51.438;6.978;2022-12-20T03:59:27;100101.75;;;12.73;93.99
2339;BME280;1180;51.438;6.978;2022-12-20T04:01:52;100097.56;;;12.83;94.20
2339;BME280;1180;51.438;6.978;2022-12-20T04:04:18;100095.94;;;12.82;93.43
2339;BME280;1180;51.438;6.978;2022-12-20T04:06:43;100095.69;;;12.85;93.60
2339;BME280;1180;51.438;6.978;2022-12-20T04:09:08;100103.06;;;12.79;94.03
2339;BME280;1180;51.438;6.978;2022-12-20T04:11:34;100093.03;;;12.87;93.91
2339;BME280;1180;51.438;6.978;2022-12-20T04:13:59;100087.94;;;12.74;94.61
2339;BME280;1180;51.438;6.978;2022-12-20T04:16:26;100098.50;;;12.82;94.42
2339;BME280;1180;51.438;6.978;2022-12-20T04:18:52;100108.88;;;12.94;94.10
2339;BME280;1180;51.438;6.978;2022-12-20T04:21:26;100106.88;;;12.97;93.75
2339;BME280;1180;51.438;6.978;2022-12-20T04:23:52;100105.25;;;12.96;93.84
2339;BME280;1180;51.438;6.978;2022-12-20T04:26:18;100099.00;;;12.88;94.50
2339;BME280;1180;51.438;6.978;2022-12-20T04:28:44;100099.16;;;12.97;94.52
2339;BME280;1180;51.438;6.978;2022-12-20T04:31:10;100084.19;;;13.03;94.04
2339;BME280;1180;51.438;6.978;2022-12-20T04:33:35;100095.47;;;12.89;94.76
2339;BME280;1180;51.438;6.978;2022-12-20T04:36:01;100091.22;;;13.00;94.18
2339;BME280;1180;51.438;6.978;2022-12-20T04:38:26;100089.69;;;12.98;94.72
2339;BME280;1180;51.438;6.978;2022-12-20T04:40:53;100094.84;;;12.98;94.32
2339;BME280;1180;51.438;6.978;2022-12-20T04:43:19;100082.38;;;12.92;95.04
2339;BME280;1180;51.438;6.978;2022-12-20T04:45:49;100100.31;;;12.93;95.15
2339;BME280;1180;51.438;6.978;2022-12-20T04:48:16;100089.31;;;12.91;95.08
2339;BME280;1180;51.438;6.978;2022-12-20T04:50:42;100106.31;;;12.94;95.85
2339;BME280;1180;51.438;6.978;2022-12-20T04:53:11;100101.16;;;12.94;95.82
2339;BME280;1180;51.438;6.978;2022-12-20T04:56:00;100107.81;;;12.96;95.87
2339;BME280;1180;51.438;6.978;2022-12-20T04:58:26;100111.06;;;12.87;96.82
2339;BME280;1180;51.438;6.978;2022-12-20T05:00:52;100106.09;;;12.97;96.58
2339;BME280;1180;51.438;6.978;2022-12-20T05:03:18;100098.00;;;13.02;96.11
2339;BME280;1180;51.438;6.978;2022-12-20T05:05:44;100080.31;;;12.97;96.09
2339;BME280;1180;51.438;6.978;2022-12-20T05:08:09;100080.09;;;12.76;97.65
2339;BME280;1180;51.438;6.978;2022-12-20T05:10:35;100088.19;;;12.82;98.13
2339;BME280;1180;51.438;6.978;2022-12-20T05:13:00;100083.84;;;12.96;97.20
2339;BME280;1180;51.438;6.978;2022-12-20T05:15:26;100089.78;;;12.96;97.34
2339;BME280;1180;51.438;6.978;2022-12-20T05:17:51;100076.69;;;12.99;96.83
2339;BME280;1180;51.438;6.978;2022-12-20T05:20:27;100068.88;;;13.01;97.10
2339;BME280;1180;51.438;6.978;2022-12-20T05:22:52;100061.41;;;12.85;97.00
2339;BME280;1180;51.438;6.978;2022-12-20T05:25:38;100037.84;;;12.78;97.91
2339;BME280;1180;51.438;6.978;2022-12-20T05:28:22;100041.59;;;12.74;98.55
2339;BME280;1180;51.438;6.978;2022-12-20T05:30:47;100048.06;;;12.80;97.73
2339;BME280;1180;51.438;6.978;2022-12-20T05:33:13;100055.78;;;12.80;97.81
2339;BME280;1180;51.438;6.978;2022-12-20T05:35:38;100050.34;;;12.71;98.36
2339;BME280;1180;51.438;6.978;2022-12-20T05:38:03;100039.09;;;12.73;98.56
2339;BME280;1180;51.438;6.978;2022-12-20T05:40:29;100043.13;;;12.77;97.28
2339;BME280;1180;51.438;6.978;2022-12-20T05:42:54;100034.91;;;12.96;96.86
2339;BME280;1180;51.438;6.978;2022-12-20T05:45:19;100040.06;;;13.07;95.88
2339;BME280;1180;51.438;6.978;2022-12-20T05:47:46;100040.31;;;13.04;94.88
2339;BME280;1180;51.438;6.978;2022-12-20T05:50:11;100034.75;;;12.97;95.10
2339;BME280;1180;51.438;6.978;2022-12-20T05:52:36;100043.19;;;12.99;94.83
2339;BME280;1180;51.438;6.978;2022-12-20T05:55:02;100022.38;;;13.03;94.54
2339;BME280;1180;51.438;6.978;2022-12-20T05:57:27;100047.47;;;12.88;94.68
2339;BME280;1180;51.438;6.978;2022-12-20T05:59:52;100030.53;;;12.96;94.36
2339;BME280;1180;51.438;6.978;2022-12-20T06:02:18;100026.88;;;12.88;93.95
2339;BME280;1180;51.438;6.978;2022-12-20T06:04:44;100016.34;;;12.91;94.34
2339;BME280;1180;51.438;6.978;2022-12-20T06:07:09;100015.53;;;12.79;94.99
2339;BME280;1180;51.438;6.978;2022-12-20T06:09:35;100010.00;;;12.83;94.20
2339;BME280;1180;51.438;6.978;2022-12-20T06:12:00;100024.28;;;12.76;94.90
2339;BME280;1180;51.438;6.978;2022-12-20T06:14:25;100030.38;;;12.86;93.80
2339;BME280;1180;51.438;6.978;2022-12-20T06:16:51;100023.06;;;13.05;92.98
2339;BME280;1180;51.438;6.978;2022-12-20T06:19:17;100018.00;;;12.92;92.92
2339;BME280;1180;51.438;6.978;2022-12-20T06:21:43;100024.63;;;13.07;92.66
2339;BME280;1180;51.438;6.978;2022-12-20T06:24:08;100027.22;;;13.19;91.31
2339;BME280;1180;51.438;6.978;2022-12-20T06:26:33;100016.72;;;13.33;90.46
2339;BME280;1180;51.438;6.978;2022-12-20T06:29:03;100017.84;;;13.18;90.91
2339;BME280;1180;51.438;6.978;2022-12-20T06:31:31;100013.28;;;13.21;90.44
2339;BME280;1180;51.438;6.978;2022-12-20T06:33:57;100023.28;;;13.26;90.24
2339;BME280;1180;51.438;6.978;2022-12-20T06:36:22;100024.75;;;13.17;90.06
2339;BME280;1180;51.438;6.978;2022-12-20T06:38:47;100027.50;;;13.27;90.03
2339;BME280;1180;51.438;6.978;2022-12-20T06:41:13;100017.84;;;13.18;89.87
2339;BME280;1180;51.438;6.978;2022-12-20T06:43:38;100014.25;;;13.32;89.57
2339;BME280;1180;51.438;6.978;2022-12-20T06:46:03;100006.19;;;13.36;88.65
2339;BME280;1180;51.438;6.978;2022-12-20T06:48:29;99986.50;;;13.35;88.85
2339;BME280;1180;51.438;6.978;2022-12-20T06:50:54;99999.63;;;13.32;88.41
2339;BME280;1180;51.438;6.978;2022-12-20T06:53:19;99998.69;;;13.33;88.61
2339;BME280;1180;51.438;6.978;2022-12-20T06:55:46;99990.34;;;13.29;89.03
2339;BME280;1180;51.438;6.978;2022-12-20T06:58:14;99990.34;;;13.29;88.07
2339;BME280;1180;51.438;6.978;2022-12-20T07:00:39;99997.22;;;13.18;88.98
2339;BME280;1180;51.438;6.978;2022-12-20T07:03:06;99998.53;;;13.35;88.58
2339;BME280;1180;51.438;6.978;2022-12-20T07:05:31;99989.25;;;13.45;87.33
2339;BME280;1180;51.438;6.978;2022-12-20T07:07:56;99980.31;;;13.49;86.83
2339;BME280;1180;51.438;6.978;2022-12-20T07:10:22;99980.78;;;13.54;86.66
2339;BME280;1180;51.438;6.978;2022-12-20T07:12:47;99977.63;;;13.51;86.93
2339;BME280;1180;51.438;6.978;2022-12-20T07:15:12;99981.81;;;13.40;87.49
2339;BME280;1180;51.438;6.978;2022-12-20T07:17:38;99979.56;;;13.36;87.31
2339;BME280;1180;51.438;6.978;2022-12-20T07:20:03;99978.22;;;13.54;86.17
2339;BME280;1180;51.438;6.978;2022-12-20T07:22:29;99979.72;;;13.57;86.04
2339;BME280;1180;51.438;6.978;2022-12-20T07:24:54;99974.34;;;13.49;85.49
2339;BME280;1180;51.438;6.978;2022-12-20T07:27:20;99974.88;;;13.41;86.83
2339;BME280;1180;51.438;6.978;2022-12-20T07:29:45;99966.50;;;13.50;85.55
2339;BME280;1180;51.438;6.978;2022-12-20T07:32:11;99973.06;;;13.43;86.68
2339;BME280;1180;51.438;6.978;2022-12-20T07:34:37;99963.56;;;13.43;86.26
2339;BME280;1180;51.438;6.978;2022-12-20T07:37:03;99967.28;;;13.39;87.09
2339;BME280;1180;51.438;6.978;2022-12-20T07:39:28;99967.31;;;13.51;86.51
2339;BME280;1180;51.438;6.978;2022-12-20T07:41:54;99954.91;;;13.45;86.15
2339;BME280;1180;51.438;6.978;2022-12-20T07:44:20;99961.44;;;13.49;85.66
2339;BME280;1180;51.438;6.978;2022-12-20T07:46:46;99966.63;;;13.60;85.20
2339;BME280;1180;51.438;6.978;2022-12-20T07:49:12;99951.16;;;13.60;84.97
2339;BME280;1180;51.438;6.978;2022-12-20T07:51:39;99963.81;;;13.63;84.72
2339;BME280;1180;51.438;6.978;2022-12-20T07:54:12;99959.59;;;13.62;85.00
2339;BME280;1180;51.438;6.978;2022-12-20T07:56:43;99951.16;;;13.60;84.85
2339;BME280;1180;51.438;6.978;2022-12-20T07:59:13;99942.22;;;13.53;84.96
2339;BME280;1180;51.438;6.978;2022-12-20T08:01:44;99958.75;;;13.73;85.83
2339;BME280;1180;51.438;6.978;2022-12-20T08:04:14;99960.94;;;13.89;84.31
2339;BME280;1180;51.438;6.978;2022-12-20T08:06:41;99958.59;;;13.86;82.97
2339;BME280;1180;51.438;6.978;2022-12-20T08:09:08;99964.72;;;13.85;82.66
2339;BME280;1180;51.438;6.978;2022-12-20T08:11:37;99986.63;;;13.68;83.42
2339;BME280;1180;51.438;6.978;2022-12-20T08:14:04;99974.81;;;13.65;84.13
2339;BME280;1180;51.438;6.978;2022-12-20T08:16:30;99982.53;;;13.77;83.25
2339;BME280;1180;51.438;6.978;2022-12-20T08:18:56;99971.53;;;13.63;83.95
2339;BME280;1180;51.438;6.978;2022-12-20T08:21:21;99967.31;;;13.62;84.16
2339;BME280;1180;51.438;6.978;2022-12-20T08:23:46;99973.41;;;13.72;83.23
2339;BME280;1180;51.438;6.978;2022-12-20T08:26:12;99961.09;;;13.65;84.21
2339;BME280;1180;51.438;6.978;2022-12-20T08:28:37;99963.78;;;13.75;83.98
2339;BME280;1180;51.438;6.978;2022-12-20T08:31:04;99959.34;;;13.65;84.02
2339;BME280;1180;51.438;6.978;2022-12-20T08:33:31;99950.44;;;13.58;84.42
2339;BME280;1180;51.438;6.978;2022-12-20T08:36:01;99938.84;;;13.52;84.93
2339;BME280;1180;51.438;6.978;2022-12-20T08:38:30;99939.63;;;13.41;85.72
2339;BME280;1180;51.438;6.978;2022-12-20T08:41:03;99938.25;;;13.49;85.29
2339;BME280;1180;51.438;6.978;2022-12-20T08:43:30;99947.63;;;13.72;84.14
2339;BME280;1180;51.438;6.978;2022-12-20T08:45:55;99951.47;;;13.67;84.10
2339;BME280;1180;51.438;6.978;2022-12-20T08:48:21;99947.16;;;13.56;84.73
2339;BME280;1180;51.438;6.978;2022-12-20T08:50:53;99953.94;;;13.80;83.19
2339;BME280;1180;51.438;6.978;2022-12-20T08:53:18;99949.00;;;13.99;81.98
2339;BME280;1180;51.438;6.978;2022-12-20T08:55:44;99943.84;;;13.99;82.25
2339;BME280;1180;51.438;6.978;2022-12-20T08:58:09;99940.41;;;13.99;82.25
2339;BME280;1180;51.438;6.978;2022-12-20T09:00:35;99940.78;;;13.83;82.79
2339;BME280;1180;51.438;6.978;2022-12-20T09:03:00;99943.84;;;13.88;82.93
2339;BME280;1180;51.438;6.978;2022-12-20T09:05:26;99949.00;;;13.99;82.25
2339;BME280;1180;51.438;6.978;2022-12-20T09:07:51;99942.69;;;13.81;83.02
2339;BME280;1180;51.438;6.978;2022-12-20T09:10:16;99936.13;;;13.77;83.28
2339;BME280;1180;51.438;6.978;2022-12-20T09:12:42;99951.59;;;13.77;83.52
2339;BME280;1180;51.438;6.978;2022-12-20T09:15:07;99941.50;;;13.85;83.09
2339;BME280;1180;51.438;6.978;2022-12-20T09:17:33;99935.63;;;13.83;83.39
2339;BME280;1180;51.438;6.978;2022-12-20T09:19:58;99954.84;;;14.01;82.15
2339;BME280;1180;51.438;6.978;2022-12-20T09:22:23;99951.19;;;14.04;82.38
2339;BME280;1180;51.438;6.978;2022-12-20T09:24:49;99950.69;;;14.22;81.56
2339;BME280;1180;51.438;6.978;2022-12-20T09:27:14;99952.13;;;14.14;81.35
2339;BME280;1180;51.438;6.978;2022-12-20T09:29:39;99956.97;;;13.96;82.66
2339;BME280;1180;51.438;6.978;2022-12-20T09:32:05;99954.91;;;14.23;81.44
2339;BME280;1180;51.438;6.978;2022-12-20T09:34:30;99964.31;;;14.12;81.54
2339;BME280;1180;51.438;6.978;2022-12-20T09:36:56;99975.81;;;14.08;82.27
2339;BME280;1180;51.438;6.978;2022-12-20T09:39:21;99955.50;;;14.15;82.82
2339;BME280;1180;51.438;6.978;2022-12-20T09:41:46;99957.38;;;14.13;83.20
2339;BME280;1180;51.438;6.978;2022-12-20T09:44:17;99959.88;;;14.03;84.00
2339;BME280;1180;51.438;6.978;2022-12-20T09:46:47;99974.53;;;13.91;85.28
2339;BME280;1180;51.438;6.978;2022-12-20T09:49:16;99976.28;;;14.02;85.34
2339;BME280;1180;51.438;6.978;2022-12-20T09:57:27;99965.34;;;14.21;84.65
2339;BME280;1180;51.438;6.978;2022-12-20T09:59:57;99966.91;;;14.12;84.99
2339;BME280;1180;51.438;6.978;2022-12-20T10:02:24;99955.94;;;14.20;85.14
2339;BME280;1180;51.438;6.978;2022-12-20T10:04:51;99960.06;;;14.23;84.84
2339;BME280;1180;51.438;6.978;2022-12-20T10:15:36;99949.22;;;13.96;86.27
2339;BME280;1180;51.438;6.978;2022-12-20T10:24:00;99937.59;;;14.13;85.86
2339;BME280;1180;51.438;6.978;2022-12-20T10:26:26;99926.63;;;14.21;85.56
2339;BME280;1180;51.438;6.978;2022-12-20T10:28:51;99918.81;;;14.11;85.16
2339;BME280;1180;51.438;6.978;2022-12-20T10:31:17;99922.22;;;14.12;85.37
2339;BME280;1180;51.438;6.978;2022-12-20T10:33:44;99925.94;;;14.19;84.99
2339;BME280;1180;51.438;6.978;2022-12-20T10:38:55;99918.19;;;14.19;84.13
2339;BME280;1180;51.438;6.978;2022-12-20T10:41:29;99900.56;;;14.24;84.25
2339;BME280;1180;51.438;6.978;2022-12-20T10:44:02;99910.81;;;14.47;83.17
2339;BME280;1180;51.438;6.978;2022-12-20T10:46:40;99903.81;;;14.38;83.32
2339;BME280;1180;51.438;6.978;2022-12-20T10:49:26;99895.81;;;14.41;84.09
2339;BME280;1180;51.438;6.978;2022-12-20T10:51:55;99892.47;;;14.50;83.62
2339;BME280;1180;51.438;6.978;2022-12-20T10:54:33;99898.41;;;14.41;84.52
2339;BME280;1180;51.438;6.978;2022-12-20T10:57:01;99897.09;;;14.47;84.65
2339;BME280;1180;51.438;6.978;2022-12-20T10:59:36;99879.63;;;14.39;85.54
2339;BME280;1180;51.438;6.978;2022-12-20T11:05:23;99886.19;;;14.43;85.04
2339;BME280;1180;51.438;6.978;2022-12-20T11:10:23;99870.00;;;14.62;83.57
2339;BME280;1180;51.438;6.978;2022-12-20T11:12:57;99871.31;;;14.56;83.90
2339;BME280;1180;51.438;6.978;2022-12-20T11:15:27;99870.19;;;14.49;84.44
2339;BME280;1180;51.438;6.978;2022-12-20T11:18:03;99865.34;;;14.56;83.72
2339;BME280;1180;51.438;6.978;2022-12-20T11:20:46;99864.50;;;14.55;83.22
2339;BME280;1180;51.438;6.978;2022-12-20T11:29:05;99847.66;;;14.51;83.12
2339;BME280;1180;51.438;6.978;2022-12-20T11:31:50;99841.41;;;14.54;82.31
2339;BME280;1180;51.438;6.978;2022-12-20T11:34:28;99850.38;;;14.50;82.51
2339;BME280;1180;51.438;6.978;2022-12-20T11:53:26;99839.44;;;14.67;83.66
2339;BME280;1180;51.438;6.978;2022-12-20T11:55:53;99831.28;;;14.62;84.33
2339;BME280;1180;51.438;6.978;2022-12-20T11:58:30;99826.78;;;14.64;84.33
2339;BME280;1180;51.438;6.978;2022-12-20T12:01:09;99831.16;;;14.64;84.23
2339;BME280;1180;51.438;6.978;2022-12-20T12:03:40;99821.72;;;14.74;82.46
2339;BME280;1180;51.438;6.978;2022-12-20T12:06:16;99826.34;;;14.80;82.26
2339;BME280;1180;51.438;6.978;2022-12-20T12:11:39;99819.81;;;14.76;82.16
2339;BME280;1180;51.438;6.978;2022-12-20T12:14:05;99820.50;;;14.78;81.73
2339;BME280;1180;51.438;6.978;2022-12-20T12:16:41;99816.22;;;14.98;80.44
2339;BME280;1180;51.438;6.978;2022-12-20T12:19:11;99825.88;;;14.96;80.16
2339;BME280;1180;51.438;6.978;2022-12-20T12:21:45;99825.19;;;14.94;80.29
2339;BME280;1180;51.438;6.978;2022-12-20T12:24:24;99809.56;;;14.96;79.42
2339;BME280;1180;51.438;6.978;2022-12-20T12:26:52;99814.97;;;14.83;80.49
2339;BME280;1180;51.438;6.978;2022-12-20T12:29:19;99825.81;;;14.77;80.37
2339;BME280;1180;51.438;6.978;2022-12-20T12:31:52;99814.28;;;14.91;80.02
2339;BME280;1180;51.438;6.978;2022-12-20T12:43:22;99815.09;;;15.22;77.37
2339;BME280;1180;51.438;6.978;2022-12-20T12:45:54;99823.66;;;15.23;77.77
2339;BME280;1180;51.438;6.978;2022-12-20T12:50:56;99819.00;;;15.16;78.29
2339;BME280;1180;51.438;6.978;2022-12-20T12:55:53;99813.00;;;15.06;79.67
2339;BME280;1180;51.438;6.978;2022-12-20T13:00:57;99815.16;;;15.01;81.69
2339;BME280;1180;51.438;6.978;2022-12-20T13:09:35;99827.47;;;14.87;87.64
2339;BME280;1180;51.438;6.978;2022-12-20T13:12:46;99829.38;;;14.85;89.55
2339;BME280;1180;51.438;6.978;2022-12-20T13:17:49;99837.22;;;14.74;90.87
2339;BME280;1180;51.438;6.978;2022-12-20T13:20:34;99830.41;;;14.73;91.37
2339;BME280;1180;51.438;6.978;2022-12-20T13:25:45;99821.81;;;14.51;93.19
2339;BME280;1180;51.438;6.978;2022-12-20T13:30:40;99816.59;;;14.41;94.44
2339;BME280;1180;51.438;6.978;2022-12-20T13:35:57;99818.88;;;14.35;95.33
2339;BME280;1180;51.438;6.978;2022-12-20T13:40:59;99822.53;;;14.32;96.39
2339;BME280;1180;51.438;6.978;2022-12-20T13:48:49;99839.78;;;14.32;96.74
2339;BME280;1180;51.438;6.978;2022-12-20T13:51:17;99841.22;;;14.24;96.34
2339;BME280;1180;51.438;6.978;2022-12-20T13:53:52;99838.06;;;14.21;97.44
2339;BME280;1180;51.438;6.978;2022-12-20T13:56:45;99838.59;;;14.14;97.65
2339;BME280;1180;51.438;6.978;2022-12-20T13:59:26;99836.56;;;14.18;97.89
2339;BME280;1180;51.438;6.978;2022-12-20T14:01:59;99840.66;;;14.21;97.39
2339;BME280;1180;51.438;6.978;2022-12-20T14:04:38;99838.69;;;14.13;98.09
2339;BME280;1180;51.438;6.978;2022-12-20T14:07:05;99840.47;;;14.12;98.08
2339;BME280;1180;51.438;6.978;2022-12-20T14:09:35;99848.31;;;14.11;97.92
2339;BME280;1180;51.438;6.978;2022-12-20T14:12:09;99844.78;;;14.12;98.07
2339;BME280;1180;51.438;6.978;2022-12-20T14:14:37;99846.25;;;14.05;98.07
2339;BME280;1180;51.438;6.978;2022-12-20T14:17:28;99835.25;;;13.91;98.55
2339;BME280;1180;51.438;6.978;2022-12-20T14:22:32;99836.00;;;13.82;99.35
2339;BME280;1180;51.438;6.978;2022-12-20T14:24:58;99841.03;;;13.83;99.33
2339;BME280;1180;51.438;6.978;2022-12-20T14:27:28;99828.25;;;13.82;99.69
2339;BME280;1180;51.438;6.978;2022-12-20T14:29:57;99839.66;;;13.79;100.00
2339;BME280;1180;51.438;6.978;2022-12-20T14:32:22;99835.88;;;13.83;100.00
2339;BME280;1180;51.438;6.978;2022-12-20T14:34:48;99836.81;;;13.82;100.00
2339;BME280;1180;51.438;6.978;2022-12-20T14:37:34;99831.97;;;13.89;99.80
2339;BME280;1180;51.438;6.978;2022-12-20T14:42:37;99817.69;;;13.85;99.90
2339;BME280;1180;51.438;6.978;2022-12-20T14:45:24;99818.13;;;13.90;99.86
2339;BME280;1180;51.438;6.978;2022-12-20T14:47:55;99825.88;;;13.90;99.14
2339;BME280;1180;51.438;6.978;2022-12-20T14:50:30;99818.38;;;13.87;99.40
2339;BME280;1180;51.438;6.978;2022-12-20T14:52:57;99808.91;;;13.88;99.69
2339;BME280;1180;51.438;6.978;2022-12-20T14:55:43;99813.38;;;13.85;99.27
2339;BME280;1180;51.438;6.978;2022-12-20T14:58:30;99814.41;;;13.83;99.34
2339;BME280;1180;51.438;6.978;2022-12-20T15:01:03;99812.28;;;13.88;99.02
2339;BME280;1180;51.438;6.978;2022-12-20T15:03:52;99803.84;;;13.86;99.07
2339;BME280;1180;51.438;6.978;2022-12-20T15:06:45;99798.44;;;13.89;98.85
2339;BME280;1180;51.438;6.978;2022-12-20T15:09:12;99798.44;;;13.89;98.49
2339;BME280;1180;51.438;6.978;2022-12-20T15:11:41;99799.13;;;13.91;98.26
2339;BME280;1180;51.438;6.978;2022-12-20T15:14:32;99791.66;;;13.88;98.17
2339;BME280;1180;51.438;6.978;2022-12-20T15:17:11;99803.31;;;13.82;98.46
2339;BME280;1180;51.438;6.978;2022-12-20T15:19:38;99786.75;;;13.85;98.71
2339;BME280;1180;51.438;6.978;2022-12-20T15:22:04;99790.97;;;13.86;98.61
2339;BME280;1180;51.438;6.978;2022-12-20T15:24:31;99794.63;;;13.83;98.31